sensor_id;sensor_type;location;lat;lon;timestamp;temperature;humidity
6462;DHT22;3264;42.862;25.098;2022-07-24T00:01:58;17.90;94.70
6462;DHT22;3264;42.862;25.098;2022-07-24T00:04:26;18.00;94.60
6462;DHT22;3264;42.862;25.098;2022-07-24T00:06:54;18.10;94.40
6462;DHT22;3264;42.862;25.098;2022-07-24T00:09:22;18.00;94.60
6462;DHT22;3264;42.862;25.098;2022-07-24T00:11:54;17.90;94.90
6462;DHT22;3264;42.862;25.098;2022-07-24T00:14:22;17.90;94.90
6462;DHT22;3264;42.862;25.098;2022-07-24T00:16:55;17.90;94.90
6462;DHT22;3264;42.862;25.098;2022-07-24T00:19:25;17.90;95.00
6462;DHT22;3264;42.862;25.098;2022-07-24T00:22:05;17.90;94.90
6462;DHT22;3264;42.862;25.098;2022-07-24T00:24:37;18.00;94.70
6462;DHT22;3264;42.862;25.098;2022-07-24T00:27:05;17.90;94.70
6462;DHT22;3264;42.862;25.098;2022-07-24T00:29:37;17.90;95.10
6462;DHT22;3264;42.862;25.098;2022-07-24T00:35:19;17.70;95.40
6462;DHT22;3264;42.862;25.098;2022-07-24T00:37:48;17.60;95.90
6462;DHT22;3264;42.862;25.098;2022-07-24T00:40:20;17.60;96.20
6462;DHT22;3264;42.862;25.098;2022-07-24T00:42:52;17.50;96.20
6462;DHT22;3264;42.862;25.098;2022-07-24T00:45:25;17.50;96.00
6462;DHT22;3264;42.862;25.098;2022-07-24T00:47:53;17.60;96.00
6462;DHT22;3264;42.862;25.098;2022-07-24T00:50:24;17.60;95.90
6462;DHT22;3264;42.862;25.098;2022-07-24T00:52:53;17.60;96.00
6462;DHT22;3264;42.862;25.098;2022-07-24T00:55:23;17.50;96.20
6462;DHT22;3264;42.862;25.098;2022-07-24T00:57:54;17.60;96.10
6462;DHT22;3264;42.862;25.098;2022-07-24T01:00:23;17.50;96.50
6462;DHT22;3264;42.862;25.098;2022-07-24T01:02:53;17.40;96.60
6462;DHT22;3264;42.862;25.098;2022-07-24T01:05:27;17.40;96.60
6462;DHT22;3264;42.862;25.098;2022-07-24T01:07:58;17.50;96.30
6462;DHT22;3264;42.862;25.098;2022-07-24T01:10:31;17.40;96.40
6462;DHT22;3264;42.862;25.098;2022-07-24T01:13:03;17.40;96.50
6462;DHT22;3264;42.862;25.098;2022-07-24T01:15:34;17.40;96.60
6462;DHT22;3264;42.862;25.098;2022-07-24T01:21:28;17.20;96.90
6462;DHT22;3264;42.862;25.098;2022-07-24T01:23:57;17.20;97.40
6462;DHT22;3264;42.862;25.098;2022-07-24T01:26:30;17.10;97.40
6462;DHT22;3264;42.862;25.098;2022-07-24T01:29:01;17.00;97.80
6462;DHT22;3264;42.862;25.098;2022-07-24T01:31:30;16.90;97.90
6462;DHT22;3264;42.862;25.098;2022-07-24T01:33:58;16.90;98.00
6462;DHT22;3264;42.862;25.098;2022-07-24T01:36:51;16.90;98.20
6462;DHT22;3264;42.862;25.098;2022-07-24T01:39:24;16.90;98.10
6462;DHT22;3264;42.862;25.098;2022-07-24T01:41:52;16.90;98.20
6462;DHT22;3264;42.862;25.098;2022-07-24T01:44:24;17.00;97.90
6462;DHT22;3264;42.862;25.098;2022-07-24T01:46:55;17.00;98.20
6462;DHT22;3264;42.862;25.098;2022-07-24T01:49:27;17.00;98.30
6462;DHT22;3264;42.862;25.098;2022-07-24T01:51:57;17.00;98.10
6462;DHT22;3264;42.862;25.098;2022-07-24T01:54:32;17.10;97.80
6462;DHT22;3264;42.862;25.098;2022-07-24T01:57:01;17.10;97.60
6462;DHT22;3264;42.862;25.098;2022-07-24T01:59:31;17.10;97.90
6462;DHT22;3264;42.862;25.098;2022-07-24T02:02:01;17.20;97.60
6462;DHT22;3264;42.862;25.098;2022-07-24T02:04:30;17.10;97.70
6462;DHT22;3264;42.862;25.098;2022-07-24T02:07:03;17.00;97.90
6462;DHT22;3264;42.862;25.098;2022-07-24T02:09:32;17.00;98.00
6462;DHT22;3264;42.862;25.098;2022-07-24T02:12:00;16.90;98.20
6462;DHT22;3264;42.862;25.098;2022-07-24T02:14:28;16.90;98.40
6462;DHT22;3264;42.862;25.098;2022-07-24T02:16:56;16.70;98.80
6462;DHT22;3264;42.862;25.098;2022-07-24T02:19:26;16.70;98.80
6462;DHT22;3264;42.862;25.098;2022-07-24T02:21:55;16.80;98.80
6462;DHT22;3264;42.862;25.098;2022-07-24T02:24:30;16.70;98.70
6462;DHT22;3264;42.862;25.098;2022-07-24T02:30:23;16.80;99.00
6462;DHT22;3264;42.862;25.098;2022-07-24T02:32:52;16.80;99.00
6462;DHT22;3264;42.862;25.098;2022-07-24T02:35:21;16.70;98.90
6462;DHT22;3264;42.862;25.098;2022-07-24T02:37:53;16.70;98.90
6462;DHT22;3264;42.862;25.098;2022-07-24T02:40:23;16.70;99.00
6462;DHT22;3264;42.862;25.098;2022-07-24T02:42:56;16.80;98.90
6462;DHT22;3264;42.862;25.098;2022-07-24T02:45:25;16.90;98.60
6462;DHT22;3264;42.862;25.098;2022-07-24T02:47:57;16.90;98.30
6462;DHT22;3264;42.862;25.098;2022-07-24T02:50:33;16.80;98.80
6462;DHT22;3264;42.862;25.098;2022-07-24T02:56:19;16.80;98.70
6462;DHT22;3264;42.862;25.098;2022-07-24T02:58:48;16.70;98.60
6462;DHT22;3264;42.862;25.098;2022-07-24T03:01:16;16.80;98.50
6462;DHT22;3264;42.862;25.098;2022-07-24T03:03:48;16.90;98.10
6462;DHT22;3264;42.862;25.098;2022-07-24T03:06:37;16.90;97.90
6462;DHT22;3264;42.862;25.098;2022-07-24T03:09:06;16.80;98.20
6462;DHT22;3264;42.862;25.098;2022-07-24T03:11:36;16.80;98.30
6462;DHT22;3264;42.862;25.098;2022-07-24T03:14:08;16.90;98.20
6462;DHT22;3264;42.862;25.098;2022-07-24T03:16:36;16.80;98.40
6462;DHT22;3264;42.862;25.098;2022-07-24T03:19:05;16.90;98.20
6462;DHT22;3264;42.862;25.098;2022-07-24T03:21:33;16.80;98.40
6462;DHT22;3264;42.862;25.098;2022-07-24T03:24:30;16.80;98.70
6462;DHT22;3264;42.862;25.098;2022-07-24T03:27:03;17.10;98.10
6462;DHT22;3264;42.862;25.098;2022-07-24T03:29:31;17.00;98.00
6462;DHT22;3264;42.862;25.098;2022-07-24T03:31:59;17.10;97.50
6462;DHT22;3264;42.862;25.098;2022-07-24T03:34:30;17.10;98.10
6462;DHT22;3264;42.862;25.098;2022-07-24T03:37:02;17.00;97.80
6462;DHT22;3264;42.862;25.098;2022-07-24T03:39:31;17.10;97.80
6462;DHT22;3264;42.862;25.098;2022-07-24T03:41:59;17.20;97.70
6462;DHT22;3264;42.862;25.098;2022-07-24T03:44:29;17.30;97.90
6462;DHT22;3264;42.862;25.098;2022-07-24T03:47:01;17.30;96.90
6462;DHT22;3264;42.862;25.098;2022-07-24T03:49:32;17.40;97.20
6462;DHT22;3264;42.862;25.098;2022-07-24T03:52:00;17.30;97.70
6462;DHT22;3264;42.862;25.098;2022-07-24T03:54:31;17.20;97.60
6462;DHT22;3264;42.862;25.098;2022-07-24T03:57:03;17.20;97.80
6462;DHT22;3264;42.862;25.098;2022-07-24T03:59:46;17.30;98.00
6462;DHT22;3264;42.862;25.098;2022-07-24T04:02:29;17.30;97.70
6462;DHT22;3264;42.862;25.098;2022-07-24T04:04:58;17.20;98.00
6462;DHT22;3264;42.862;25.098;2022-07-24T04:07:26;17.20;98.60
6462;DHT22;3264;42.862;25.098;2022-07-24T04:09:56;17.20;98.50
6462;DHT22;3264;42.862;25.098;2022-07-24T04:12:25;17.30;98.30
6462;DHT22;3264;42.862;25.098;2022-07-24T04:14:55;17.50;98.00
6462;DHT22;3264;42.862;25.098;2022-07-24T04:17:28;17.50;98.00
6462;DHT22;3264;42.862;25.098;2022-07-24T04:20:10;17.60;97.40
6462;DHT22;3264;42.862;25.098;2022-07-24T04:22:40;17.70;97.30
6462;DHT22;3264;42.862;25.098;2022-07-24T04:25:09;17.70;97.30
6462;DHT22;3264;42.862;25.098;2022-07-24T04:27:37;17.80;97.20
6462;DHT22;3264;42.862;25.098;2022-07-24T04:30:09;17.90;97.50
6462;DHT22;3264;42.862;25.098;2022-07-24T04:32:38;18.00;97.60
6462;DHT22;3264;42.862;25.098;2022-07-24T04:35:08;18.10;97.30
6462;DHT22;3264;42.862;25.098;2022-07-24T04:37:39;18.10;97.00
6462;DHT22;3264;42.862;25.098;2022-07-24T04:40:11;18.20;96.80
6462;DHT22;3264;42.862;25.098;2022-07-24T04:42:42;18.30;96.50
6462;DHT22;3264;42.862;25.098;2022-07-24T04:45:13;18.50;96.40
6462;DHT22;3264;42.862;25.098;2022-07-24T04:47:43;18.60;95.90
6462;DHT22;3264;42.862;25.098;2022-07-24T04:50:11;18.80;96.30
6462;DHT22;3264;42.862;25.098;2022-07-24T04:52:39;19.10;95.90
6462;DHT22;3264;42.862;25.098;2022-07-24T04:55:09;19.30;95.60
6462;DHT22;3264;42.862;25.098;2022-07-24T04:57:48;19.40;95.00
6462;DHT22;3264;42.862;25.098;2022-07-24T05:00:27;19.50;95.20
6462;DHT22;3264;42.862;25.098;2022-07-24T05:02:55;19.80;94.20
6462;DHT22;3264;42.862;25.098;2022-07-24T05:05:23;20.00;93.80
6462;DHT22;3264;42.862;25.098;2022-07-24T05:08:02;20.10;94.10
6462;DHT22;3264;42.862;25.098;2022-07-24T05:10:30;20.10;94.40
6462;DHT22;3264;42.862;25.098;2022-07-24T05:13:01;20.20;94.30
6462;DHT22;3264;42.862;25.098;2022-07-24T05:15:49;20.40;93.80
6462;DHT22;3264;42.862;25.098;2022-07-24T05:18:17;20.60;94.30
6462;DHT22;3264;42.862;25.098;2022-07-24T05:20:49;20.80;93.70
6462;DHT22;3264;42.862;25.098;2022-07-24T05:23:20;21.00;93.00
6462;DHT22;3264;42.862;25.098;2022-07-24T05:25:48;21.30;92.90
6462;DHT22;3264;42.862;25.098;2022-07-24T05:28:16;21.40;92.60
6462;DHT22;3264;42.862;25.098;2022-07-24T05:30:49;21.60;92.10
6462;DHT22;3264;42.862;25.098;2022-07-24T05:33:17;22.00;91.40
6462;DHT22;3264;42.862;25.098;2022-07-24T05:35:48;22.40;91.20
6462;DHT22;3264;42.862;25.098;2022-07-24T05:38:16;22.60;90.60
6462;DHT22;3264;42.862;25.098;2022-07-24T05:40:45;23.10;90.00
6462;DHT22;3264;42.862;25.098;2022-07-24T05:43:13;23.20;89.50
6462;DHT22;3264;42.862;25.098;2022-07-24T05:45:42;23.40;88.80
6462;DHT22;3264;42.862;25.098;2022-07-24T05:48:46;23.80;89.60
6462;DHT22;3264;42.862;25.098;2022-07-24T05:51:14;24.10;90.00
6462;DHT22;3264;42.862;25.098;2022-07-24T05:57:04;24.50;88.70
6462;DHT22;3264;42.862;25.098;2022-07-24T05:59:32;24.90;86.80
6462;DHT22;3264;42.862;25.098;2022-07-24T06:02:04;25.30;87.50
6462;DHT22;3264;42.862;25.098;2022-07-24T06:07:58;25.50;86.10
6462;DHT22;3264;42.862;25.098;2022-07-24T06:10:26;25.70;86.50
6462;DHT22;3264;42.862;25.098;2022-07-24T06:12:55;25.60;86.50
6462;DHT22;3264;42.862;25.098;2022-07-24T06:15:23;25.80;85.60
6462;DHT22;3264;42.862;25.098;2022-07-24T06:17:58;26.30;85.20
6462;DHT22;3264;42.862;25.098;2022-07-24T06:20:29;26.70;80.40
6462;DHT22;3264;42.862;25.098;2022-07-24T06:49:12;28.70;77.10
6462;DHT22;3264;42.862;25.098;2022-07-24T06:51:40;29.30;73.50
6462;DHT22;3264;42.862;25.098;2022-07-24T06:54:09;29.50;73.60
6462;DHT22;3264;42.862;25.098;2022-07-24T06:56:38;29.90;74.90
6462;DHT22;3264;42.862;25.098;2022-07-24T06:59:07;30.30;69.90
6462;DHT22;3264;42.862;25.098;2022-07-24T07:01:35;30.20;66.80
6462;DHT22;3264;42.862;25.098;2022-07-24T07:04:03;30.70;71.30
6462;DHT22;3264;42.862;25.098;2022-07-24T07:06:33;31.00;64.40
6462;DHT22;3264;42.862;25.098;2022-07-24T07:09:02;31.10;70.80
6462;DHT22;3264;42.862;25.098;2022-07-24T07:11:31;30.70;66.50
6462;DHT22;3264;42.862;25.098;2022-07-24T07:14:00;30.50;66.00
6462;DHT22;3264;42.862;25.098;2022-07-24T07:16:29;30.60;65.10
6462;DHT22;3264;42.862;25.098;2022-07-24T07:32:36;31.60;62.80
6462;DHT22;3264;42.862;25.098;2022-07-24T07:35:04;31.60;61.80
6462;DHT22;3264;42.862;25.098;2022-07-24T07:37:36;32.00;64.70
6462;DHT22;3264;42.862;25.098;2022-07-24T07:40:05;32.30;61.80
6462;DHT22;3264;42.862;25.098;2022-07-24T07:42:45;32.20;60.70
6462;DHT22;3264;42.862;25.098;2022-07-24T07:49:31;32.50;59.30
6462;DHT22;3264;42.862;25.098;2022-07-24T07:52:08;32.80;57.10
6462;DHT22;3264;42.862;25.098;2022-07-24T07:54:41;32.60;57.80
6462;DHT22;3264;42.862;25.098;2022-07-24T07:57:09;33.40;61.00
6462;DHT22;3264;42.862;25.098;2022-07-24T07:59:59;34.00;60.30
6462;DHT22;3264;42.862;25.098;2022-07-24T08:02:27;34.00;61.70
6462;DHT22;3264;42.862;25.098;2022-07-24T08:04:57;33.50;62.80
6462;DHT22;3264;42.862;25.098;2022-07-24T08:07:25;34.10;58.10
6462;DHT22;3264;42.862;25.098;2022-07-24T08:09:55;34.40;60.10
6462;DHT22;3264;42.862;25.098;2022-07-24T08:12:23;34.20;51.60
6462;DHT22;3264;42.862;25.098;2022-07-24T08:14:53;34.50;54.40
6462;DHT22;3264;42.862;25.098;2022-07-24T08:17:24;34.40;52.00
6462;DHT22;3264;42.862;25.098;2022-07-24T08:20:11;34.70;48.80
6462;DHT22;3264;42.862;25.098;2022-07-24T08:23:11;34.90;47.30
6462;DHT22;3264;42.862;25.098;2022-07-24T08:25:39;35.10;47.30
6462;DHT22;3264;42.862;25.098;2022-07-24T08:28:08;35.50;44.80
6462;DHT22;3264;42.862;25.098;2022-07-24T08:30:36;35.70;42.90
6462;DHT22;3264;42.862;25.098;2022-07-24T08:33:03;36.10;43.20
6462;DHT22;3264;42.862;25.098;2022-07-24T08:35:34;35.90;44.80
6462;DHT22;3264;42.862;25.098;2022-07-24T08:38:09;36.20;41.60
6462;DHT22;3264;42.862;25.098;2022-07-24T08:41:01;36.10;39.90
6462;DHT22;3264;42.862;25.098;2022-07-24T08:43:45;36.60;42.10
6462;DHT22;3264;42.862;25.098;2022-07-24T08:46:47;36.10;39.20
6462;DHT22;3264;42.862;25.098;2022-07-24T08:53:13;36.00;40.10
6462;DHT22;3264;42.862;25.098;2022-07-24T08:55:42;36.40;40.20
6462;DHT22;3264;42.862;25.098;2022-07-24T08:58:37;36.00;39.80
6462;DHT22;3264;42.862;25.098;2022-07-24T09:01:21;36.00;39.00
6462;DHT22;3264;42.862;25.098;2022-07-24T09:03:57;36.20;41.00
6462;DHT22;3264;42.862;25.098;2022-07-24T09:06:25;36.70;42.20
6462;DHT22;3264;42.862;25.098;2022-07-24T09:09:02;36.50;38.00
6462;DHT22;3264;42.862;25.098;2022-07-24T09:15:49;36.20;38.70
6462;DHT22;3264;42.862;25.098;2022-07-24T09:18:33;36.30;38.40
6462;DHT22;3264;42.862;25.098;2022-07-24T09:21:17;36.40;37.30
6462;DHT22;3264;42.862;25.098;2022-07-24T09:24:12;36.40;36.90
6462;DHT22;3264;42.862;25.098;2022-07-24T09:26:46;36.40;38.50
6462;DHT22;3264;42.862;25.098;2022-07-24T09:29:15;36.50;35.30
6462;DHT22;3264;42.862;25.098;2022-07-24T09:31:54;36.50;36.40
6462;DHT22;3264;42.862;25.098;2022-07-24T09:34:24;36.70;35.70
6462;DHT22;3264;42.862;25.098;2022-07-24T09:36:58;36.60;35.60
6462;DHT22;3264;42.862;25.098;2022-07-24T09:42:50;36.40;36.00
6462;DHT22;3264;42.862;25.098;2022-07-24T09:45:19;36.70;35.60
6462;DHT22;3264;42.862;25.098;2022-07-24T09:47:52;36.50;35.90
6462;DHT22;3264;42.862;25.098;2022-07-24T09:50:23;37.00;36.70
6462;DHT22;3264;42.862;25.098;2022-07-24T09:53:03;37.00;35.30
6462;DHT22;3264;42.862;25.098;2022-07-24T09:58:58;36.70;36.40
6462;DHT22;3264;42.862;25.098;2022-07-24T10:01:29;37.30;37.40
6462;DHT22;3264;42.862;25.098;2022-07-24T10:03:57;37.20;35.50
6462;DHT22;3264;42.862;25.098;2022-07-24T10:09:51;37.60;34.90
6462;DHT22;3264;42.862;25.098;2022-07-24T10:15:51;37.60;34.60
6462;DHT22;3264;42.862;25.098;2022-07-24T10:18:21;37.60;33.60
6462;DHT22;3264;42.862;25.098;2022-07-24T10:28:11;37.60;34.20
6462;DHT22;3264;42.862;25.098;2022-07-24T10:30:53;37.60;33.50
6462;DHT22;3264;42.862;25.098;2022-07-24T10:36:57;37.80;34.80
6462;DHT22;3264;42.862;25.098;2022-07-24T10:39:42;37.80;33.80
6462;DHT22;3264;42.862;25.098;2022-07-24T10:42:14;37.90;33.40
6462;DHT22;3264;42.862;25.098;2022-07-24T10:44:42;37.70;33.10
6462;DHT22;3264;42.862;25.098;2022-07-24T10:47:13;37.80;34.30
6462;DHT22;3264;42.862;25.098;2022-07-24T10:49:46;37.50;33.10
6462;DHT22;3264;42.862;25.098;2022-07-24T10:52:26;37.60;33.50
6462;DHT22;3264;42.862;25.098;2022-07-24T10:58:17;38.00;34.10
6462;DHT22;3264;42.862;25.098;2022-07-24T11:00:56;37.90;32.10
6462;DHT22;3264;42.862;25.098;2022-07-24T11:03:30;37.80;33.30
6462;DHT22;3264;42.862;25.098;2022-07-24T11:06:05;37.50;32.60
6462;DHT22;3264;42.862;25.098;2022-07-24T11:12:06;37.80;34.40
6462;DHT22;3264;42.862;25.098;2022-07-24T11:14:58;37.80;33.10
6462;DHT22;3264;42.862;25.098;2022-07-24T11:17:48;38.30;33.20
6462;DHT22;3264;42.862;25.098;2022-07-24T11:20:34;38.00;33.00
6462;DHT22;3264;42.862;25.098;2022-07-24T11:23:19;37.70;33.00
6462;DHT22;3264;42.862;25.098;2022-07-24T11:25:48;37.70;32.60
6462;DHT22;3264;42.862;25.098;2022-07-24T11:28:18;37.20;31.50
6462;DHT22;3264;42.862;25.098;2022-07-24T11:30:48;37.30;31.10
6462;DHT22;3264;42.862;25.098;2022-07-24T11:33:20;37.20;30.90
6462;DHT22;3264;42.862;25.098;2022-07-24T11:35:50;37.80;32.00
6462;DHT22;3264;42.862;25.098;2022-07-24T11:38:28;37.80;32.60
6462;DHT22;3264;42.862;25.098;2022-07-24T11:41:18;37.70;31.00
6462;DHT22;3264;42.862;25.098;2022-07-24T11:43:56;37.90;32.10
6462;DHT22;3264;42.862;25.098;2022-07-24T11:46:35;38.10;31.70
6462;DHT22;3264;42.862;25.098;2022-07-24T11:49:07;37.90;32.20
6462;DHT22;3264;42.862;25.098;2022-07-24T11:51:48;38.10;31.40
6462;DHT22;3264;42.862;25.098;2022-07-24T11:54:21;38.40;31.30
6462;DHT22;3264;42.862;25.098;2022-07-24T11:56:50;38.30;31.30
6462;DHT22;3264;42.862;25.098;2022-07-24T11:59:49;38.10;32.50
6462;DHT22;3264;42.862;25.098;2022-07-24T12:02:21;38.00;31.60
6462;DHT22;3264;42.862;25.098;2022-07-24T12:04:51;38.00;32.50
6462;DHT22;3264;42.862;25.098;2022-07-24T12:09:52;37.80;31.30
6462;DHT22;3264;42.862;25.098;2022-07-24T12:12:22;37.60;31.50
6462;DHT22;3264;42.862;25.098;2022-07-24T12:14:59;38.00;32.60
6462;DHT22;3264;42.862;25.098;2022-07-24T12:17:57;38.20;32.10
6462;DHT22;3264;42.862;25.098;2022-07-24T12:23:42;37.40;32.30
6462;DHT22;3264;42.862;25.098;2022-07-24T12:26:47;37.00;32.30
6462;DHT22;3264;42.862;25.098;2022-07-24T12:29:24;37.10;32.20
6462;DHT22;3264;42.862;25.098;2022-07-24T12:32:16;37.60;32.90
6462;DHT22;3264;42.862;25.098;2022-07-24T12:34:57;36.90;31.80
6462;DHT22;3264;42.862;25.098;2022-07-24T12:37:26;37.00;33.10
6462;DHT22;3264;42.862;25.098;2022-07-24T12:43:18;37.10;32.40
6462;DHT22;3264;42.862;25.098;2022-07-24T12:45:46;36.90;31.70
6462;DHT22;3264;42.862;25.098;2022-07-24T12:49:06;37.20;32.80
6462;DHT22;3264;42.862;25.098;2022-07-24T12:51:59;37.60;33.70
6462;DHT22;3264;42.862;25.098;2022-07-24T12:54:31;37.40;33.70
6462;DHT22;3264;42.862;25.098;2022-07-24T12:57:08;37.60;35.60
6462;DHT22;3264;42.862;25.098;2022-07-24T13:00:04;37.40;33.30
6462;DHT22;3264;42.862;25.098;2022-07-24T13:02:44;37.10;33.00
6462;DHT22;3264;42.862;25.098;2022-07-24T13:05:36;37.10;34.30
6462;DHT22;3264;42.862;25.098;2022-07-24T13:08:09;37.40;34.60
6462;DHT22;3264;42.862;25.098;2022-07-24T13:10:45;37.30;33.00
6462;DHT22;3264;42.862;25.098;2022-07-24T13:17:15;37.30;32.50
6462;DHT22;3264;42.862;25.098;2022-07-24T13:20:22;37.00;32.40
6462;DHT22;3264;42.862;25.098;2022-07-24T13:22:54;37.00;32.80
6462;DHT22;3264;42.862;25.098;2022-07-24T13:25:24;36.90;32.70
6462;DHT22;3264;42.862;25.098;2022-07-24T13:28:09;36.70;32.50
6462;DHT22;3264;42.862;25.098;2022-07-24T13:31:17;36.90;32.60
6462;DHT22;3264;42.862;25.098;2022-07-24T13:34:07;36.70;33.00
6462;DHT22;3264;42.862;25.098;2022-07-24T13:36:42;36.70;31.10
6462;DHT22;3264;42.862;25.098;2022-07-24T13:39:10;37.00;32.00
6462;DHT22;3264;42.862;25.098;2022-07-24T13:41:42;37.00;32.70
6462;DHT22;3264;42.862;25.098;2022-07-24T13:44:10;37.00;32.20
6462;DHT22;3264;42.862;25.098;2022-07-24T13:46:42;36.50;32.00
6462;DHT22;3264;42.862;25.098;2022-07-24T13:49:32;36.60;33.70
6462;DHT22;3264;42.862;25.098;2022-07-24T13:52:18;36.80;33.10
6462;DHT22;3264;42.862;25.098;2022-07-24T13:55:04;36.90;33.50
6462;DHT22;3264;42.862;25.098;2022-07-24T13:58:00;36.80;32.30
6462;DHT22;3264;42.862;25.098;2022-07-24T14:01:10;36.80;32.80
6462;DHT22;3264;42.862;25.098;2022-07-24T14:07:16;36.60;32.90
6462;DHT22;3264;42.862;25.098;2022-07-24T14:09:46;36.60;32.90
6462;DHT22;3264;42.862;25.098;2022-07-24T14:12:19;36.90;33.00
6462;DHT22;3264;42.862;25.098;2022-07-24T14:15:10;36.80;33.50
6462;DHT22;3264;42.862;25.098;2022-07-24T14:18:22;36.70;33.70
6462;DHT22;3264;42.862;25.098;2022-07-24T14:20:52;36.70;32.90
6462;DHT22;3264;42.862;25.098;2022-07-24T14:23:24;36.70;32.80
6462;DHT22;3264;42.862;25.098;2022-07-24T14:25:54;36.50;32.10
6462;DHT22;3264;42.862;25.098;2022-07-24T14:28:44;36.40;32.70
6462;DHT22;3264;42.862;25.098;2022-07-24T14:38:08;36.50;33.10
6462;DHT22;3264;42.862;25.098;2022-07-24T14:49:13;36.20;33.60
6462;DHT22;3264;42.862;25.098;2022-07-24T14:51:41;36.00;34.00
6462;DHT22;3264;42.862;25.098;2022-07-24T14:54:45;35.90;33.50
6462;DHT22;3264;42.862;25.098;2022-07-24T15:00:36;35.90;35.30
6462;DHT22;3264;42.862;25.098;2022-07-24T15:03:04;35.80;35.00
6462;DHT22;3264;42.862;25.098;2022-07-24T15:05:35;35.60;35.10
6462;DHT22;3264;42.862;25.098;2022-07-24T15:08:04;35.20;34.50
6462;DHT22;3264;42.862;25.098;2022-07-24T15:10:33;34.70;34.80
6462;DHT22;3264;42.862;25.098;2022-07-24T15:13:01;34.40;36.00
6462;DHT22;3264;42.862;25.098;2022-07-24T15:15:29;34.50;35.40
6462;DHT22;3264;42.862;25.098;2022-07-24T15:18:01;34.50;35.50
6462;DHT22;3264;42.862;25.098;2022-07-24T15:20:30;34.50;35.70
6462;DHT22;3264;42.862;25.098;2022-07-24T15:22:59;34.40;37.20
6462;DHT22;3264;42.862;25.098;2022-07-24T15:32:11;34.30;38.00
6462;DHT22;3264;42.862;25.098;2022-07-24T15:35:12;34.30;39.30
6462;DHT22;3264;42.862;25.098;2022-07-24T15:37:41;33.80;41.20
6462;DHT22;3264;42.862;25.098;2022-07-24T15:40:47;33.80;38.50
6462;DHT22;3264;42.862;25.098;2022-07-24T15:49:11;33.40;40.10
6462;DHT22;3264;42.862;25.098;2022-07-24T15:51:41;33.80;40.60
6462;DHT22;3264;42.862;25.098;2022-07-24T15:54:10;33.30;42.60
6462;DHT22;3264;42.862;25.098;2022-07-24T15:57:11;33.00;45.30
6462;DHT22;3264;42.862;25.098;2022-07-24T15:59:40;32.80;46.50
6462;DHT22;3264;42.862;25.098;2022-07-24T16:02:08;32.50;47.60
6462;DHT22;3264;42.862;25.098;2022-07-24T16:04:47;32.20;48.00
6462;DHT22;3264;42.862;25.098;2022-07-24T16:07:25;31.90;48.30
6462;DHT22;3264;42.862;25.098;2022-07-24T16:09:54;32.00;48.80
6462;DHT22;3264;42.862;25.098;2022-07-24T16:12:23;32.10;49.40
6462;DHT22;3264;42.862;25.098;2022-07-24T16:14:52;31.90;49.50
6462;DHT22;3264;42.862;25.098;2022-07-24T16:17:20;31.80;49.40
6462;DHT22;3264;42.862;25.098;2022-07-24T16:19:49;31.70;50.10
6462;DHT22;3264;42.862;25.098;2022-07-24T16:22:18;31.50;50.60
6462;DHT22;3264;42.862;25.098;2022-07-24T16:24:47;31.30;51.00
6462;DHT22;3264;42.862;25.098;2022-07-24T16:27:43;31.00;51.10
6462;DHT22;3264;42.862;25.098;2022-07-24T16:30:11;30.80;51.50
6462;DHT22;3264;42.862;25.098;2022-07-24T16:32:40;30.70;52.60
6462;DHT22;3264;42.862;25.098;2022-07-24T16:35:09;30.70;49.90
6462;DHT22;3264;42.862;25.098;2022-07-24T16:37:38;30.70;49.80
6462;DHT22;3264;42.862;25.098;2022-07-24T16:40:08;30.90;47.60
6462;DHT22;3264;42.862;25.098;2022-07-24T16:42:36;31.10;46.80
6462;DHT22;3264;42.862;25.098;2022-07-24T16:45:05;31.10;47.20
6462;DHT22;3264;42.862;25.098;2022-07-24T16:47:34;31.30;46.10
6462;DHT22;3264;42.862;25.098;2022-07-24T16:50:02;31.00;48.00
6462;DHT22;3264;42.862;25.098;2022-07-24T16:52:32;31.20;46.10
6462;DHT22;3264;42.862;25.098;2022-07-24T16:55:00;31.30;45.60
6462;DHT22;3264;42.862;25.098;2022-07-24T16:57:28;31.10;47.00
6462;DHT22;3264;42.862;25.098;2022-07-24T16:59:56;31.10;46.90
6462;DHT22;3264;42.862;25.098;2022-07-24T17:02:24;30.90;47.20
6462;DHT22;3264;42.862;25.098;2022-07-24T17:04:52;31.00;45.80
6462;DHT22;3264;42.862;25.098;2022-07-24T17:07:20;31.00;45.90
6462;DHT22;3264;42.862;25.098;2022-07-24T17:09:50;30.90;46.00
6462;DHT22;3264;42.862;25.098;2022-07-24T17:12:19;30.90;46.80
6462;DHT22;3264;42.862;25.098;2022-07-24T17:14:50;30.90;46.00
6462;DHT22;3264;42.862;25.098;2022-07-24T17:17:18;30.90;46.50
6462;DHT22;3264;42.862;25.098;2022-07-24T17:19:46;30.80;47.80
6462;DHT22;3264;42.862;25.098;2022-07-24T17:22:19;30.50;47.50
6462;DHT22;3264;42.862;25.098;2022-07-24T17:24:50;30.40;48.20
6462;DHT22;3264;42.862;25.098;2022-07-24T17:27:49;30.20;48.60
6462;DHT22;3264;42.862;25.098;2022-07-24T17:30:49;30.00;50.20
6462;DHT22;3264;42.862;25.098;2022-07-24T17:33:53;29.90;49.80
6462;DHT22;3264;42.862;25.098;2022-07-24T17:36:21;29.70;50.50
6462;DHT22;3264;42.862;25.098;2022-07-24T17:38:49;29.40;51.20
6462;DHT22;3264;42.862;25.098;2022-07-24T17:41:21;29.30;51.30
6462;DHT22;3264;42.862;25.098;2022-07-24T17:43:50;29.30;51.40
6462;DHT22;3264;42.862;25.098;2022-07-24T17:46:36;29.20;51.20
6462;DHT22;3264;42.862;25.098;2022-07-24T17:49:34;29.10;52.70
6462;DHT22;3264;42.862;25.098;2022-07-24T17:52:50;28.90;52.40
6462;DHT22;3264;42.862;25.098;2022-07-24T17:55:31;28.80;52.40
6462;DHT22;3264;42.862;25.098;2022-07-24T17:58:15;28.90;52.70
6462;DHT22;3264;42.862;25.098;2022-07-24T18:00:47;29.00;51.90
6462;DHT22;3264;42.862;25.098;2022-07-24T18:03:15;28.90;52.10
6462;DHT22;3264;42.862;25.098;2022-07-24T18:05:43;29.00;52.60
6462;DHT22;3264;42.862;25.098;2022-07-24T18:08:22;28.90;52.30
6462;DHT22;3264;42.862;25.098;2022-07-24T18:11:09;28.80;52.30
6462;DHT22;3264;42.862;25.098;2022-07-24T18:13:39;28.50;53.90
6462;DHT22;3264;42.862;25.098;2022-07-24T18:16:07;28.30;54.20
6462;DHT22;3264;42.862;25.098;2022-07-24T18:18:48;28.20;54.90
6462;DHT22;3264;42.862;25.098;2022-07-24T18:24:40;28.30;55.00
6462;DHT22;3264;42.862;25.098;2022-07-24T18:27:07;28.20;55.40
6462;DHT22;3264;42.862;25.098;2022-07-24T18:29:38;28.00;55.20
6462;DHT22;3264;42.862;25.098;2022-07-24T18:32:10;28.00;55.10
6462;DHT22;3264;42.862;25.098;2022-07-24T18:34:39;28.00;55.20
6462;DHT22;3264;42.862;25.098;2022-07-24T18:37:07;27.90;55.80
6462;DHT22;3264;42.862;25.098;2022-07-24T18:39:36;27.80;56.10
6462;DHT22;3264;42.862;25.098;2022-07-24T18:42:05;27.60;55.80
6462;DHT22;3264;42.862;25.098;2022-07-24T18:44:46;27.40;56.80
6462;DHT22;3264;42.862;25.098;2022-07-24T18:47:15;27.10;58.00
6462;DHT22;3264;42.862;25.098;2022-07-24T18:49:44;26.90;58.60
6462;DHT22;3264;42.862;25.098;2022-07-24T18:52:13;26.70;58.90
6462;DHT22;3264;42.862;25.098;2022-07-24T18:54:42;26.50;59.60
6462;DHT22;3264;42.862;25.098;2022-07-24T18:57:44;26.40;59.90
6462;DHT22;3264;42.862;25.098;2022-07-24T19:00:16;26.10;60.60
6462;DHT22;3264;42.862;25.098;2022-07-24T19:02:45;26.00;61.60
6462;DHT22;3264;42.862;25.098;2022-07-24T19:05:13;25.90;62.40